Time;durP1;ratioP1;P1;durP2;ratioP2;P2;SDS_P1;SDS_P2;PMS_P1;PMS_P2;Temp;Humidity;BMP_temperature;BMP_pressure;BME280_temperature;BME280_humidity;BME280_pressure;Samples;Min_cycle;Max_cycle;Signal;HPM_P1;HPM_P2
2022/05/04 00:03:20;;;;;;;12.93;8.80;;;7.10;99.90;;;;;;7319339;32;20196;-62
2022/05/04 00:07:22;;;;;;;11.12;7.57;;;7.00;99.90;;;;;;7319545;32;20809;-61
2022/05/04 00:11:24;;;;;;;14.63;8.80;;;7.00;99.90;;;;;;7321700;32;20216;-61
2022/05/04 00:15:27;;;;;;;12.88;8.05;;;6.90;99.90;;;;;;7318167;32;20248;-60
2022/05/04 00:19:28;;;;;;;11.35;8.00;;;6.90;99.90;;;;;;7317551;32;20492;-60
2022/05/04 00:23:30;;;;;;;11.43;7.70;;;6.90;99.90;;;;;;7317761;32;20733;-60
2022/05/04 00:27:33;;;;;;;13.95;7.80;;;6.80;99.90;;;;;;7312911;32;20103;-63
2022/05/04 00:31:34;;;;;;;16.60;7.65;;;6.80;99.90;;;;;;7307107;32;20125;-61
2022/05/04 00:35:36;;;;;;;10.65;7.95;;;6.80;99.90;;;;;;7319312;32;20320;-60
2022/05/04 00:39:38;;;;;;;11.20;7.78;;;6.70;99.90;;;;;;7316289;32;20447;-61
2022/05/04 00:43:40;;;;;;;14.05;7.28;;;6.70;99.90;;;;;;7312064;32;20729;-60
2022/05/04 00:47:42;;;;;;;13.30;7.35;;;6.60;99.90;;;;;;7315714;32;20104;-60
2022/05/04 00:51:43;;;;;;;9.55;6.50;;;6.50;99.90;;;;;;7316540;32;20666;-61
2022/05/04 00:55:46;;;;;;;13.73;7.10;;;6.50;99.90;;;;;;7318051;32;20462;-60
2022/05/04 00:59:48;;;;;;;11.38;7.15;;;6.50;99.90;;;;;;7319160;32;20126;-59
2022/05/04 01:03:50;;;;;;;10.93;6.72;;;6.40;99.90;;;;;;7318387;32;20210;-60
2022/05/04 01:07:52;;;;;;;10.23;6.05;;;6.50;99.90;;;;;;7317307;32;20122;-60
2022/05/04 01:11:55;;;;;;;10.77;6.40;;;6.40;99.90;;;;;;7320551;32;20192;-59
2022/05/04 01:15:57;;;;;;;11.90;6.93;;;6.40;99.90;;;;;;7307139;32;20222;-60
2022/05/04 01:19:59;;;;;;;12.85;6.93;;;6.30;99.90;;;;;;7316540;32;20793;-59
2022/05/04 01:24:00;;;;;;;12.05;6.22;;;6.30;99.90;;;;;;7316205;32;20183;-60
2022/05/04 01:28:02;;;;;;;10.52;6.20;;;6.30;99.90;;;;;;7316748;32;20126;-61
2022/05/04 01:32:05;;;;;;;8.57;5.82;;;6.30;99.90;;;;;;7310857;32;20253;-60
2022/05/04 01:36:07;;;;;;;8.85;6.90;;;6.20;99.90;;;;;;7317555;32;20183;-59
2022/05/04 01:40:09;;;;;;;12.37;6.85;;;6.10;99.90;;;;;;7311774;32;20839;-60
2022/05/04 01:44:11;;;;;;;10.25;7.10;;;6.00;99.90;;;;;;7315626;32;20472;-61
2022/05/04 01:48:13;;;;;;;9.10;6.32;;;5.90;99.90;;;;;;7314656;32;20108;-60
2022/05/04 01:52:14;;;;;;;10.05;6.07;;;5.90;99.90;;;;;;7318519;32;20514;-61
2022/05/04 01:56:16;;;;;;;11.40;6.60;;;5.90;99.90;;;;;;7317009;32;20125;-60
2022/05/04 02:00:18;;;;;;;7.43;5.50;;;5.90;99.90;;;;;;7314678;32;20129;-59
2022/05/04 02:04:21;;;;;;;10.82;6.78;;;6.00;99.90;;;;;;7314528;32;20198;-60
2022/05/04 02:08:24;;;;;;;11.75;6.07;;;5.90;99.90;;;;;;7312383;32;20103;-61
2022/05/04 02:12:27;;;;;;;10.40;6.62;;;5.90;99.90;;;;;;7315916;32;20122;-60
2022/05/04 02:16:30;;;;;;;11.10;6.62;;;5.90;99.90;;;;;;7315178;32;20541;-61
2022/05/04 02:20:32;;;;;;;11.75;6.43;;;5.80;99.90;;;;;;7314719;32;20110;-60
2022/05/04 02:24:33;;;;;;;12.90;6.45;;;5.80;99.90;;;;;;7294615;32;20103;-61
2022/05/04 02:28:35;;;;;;;9.98;6.03;;;5.80;99.90;;;;;;7315003;32;20091;-61
2022/05/04 02:32:37;;;;;;;9.05;5.90;;;5.70;99.90;;;;;;7312932;32;20201;-61
2022/05/04 02:40:58;;;;;;;11.77;6.07;;;5.70;99.90;;;;;;7307091;32;20217;-62
2022/05/04 02:45:01;;;;;;;13.07;6.82;;;5.60;99.90;;;;;;7315431;32;20388;-61
2022/05/04 02:49:02;;;;;;;11.32;6.30;;;5.60;99.90;;;;;;7314022;32;20103;-59
2022/05/04 02:53:04;;;;;;;12.13;6.53;;;5.50;99.90;;;;;;7308223;32;20099;-60
2022/05/04 02:57:07;;;;;;;12.50;6.65;;;5.50;99.90;;;;;;7305972;32;20179;-58
2022/05/04 03:05:36;;;;;;;14.13;6.35;;;5.50;99.90;;;;;;7314422;32;20126;-59
2022/05/04 03:09:38;;;;;;;10.05;6.22;;;5.40;99.90;;;;;;7301042;32;20107;-60
2022/05/04 03:13:39;;;;;;;12.82;6.57;;;5.40;99.90;;;;;;7313218;32;20506;-59
2022/05/04 03:17:41;;;;;;;12.88;6.62;;;5.40;99.90;;;;;;7308677;32;20518;-60
2022/05/04 03:21:43;;;;;;;12.57;6.87;;;5.40;99.90;;;;;;7318309;32;20096;-60
2022/05/04 03:25:45;;;;;;;15.52;7.25;;;5.30;99.90;;;;;;7319452;32;20111;-60
2022/05/04 03:29:47;;;;;;;12.77;6.80;;;5.30;99.90;;;;;;7306480;32;20474;-60
2022/05/04 03:33:49;;;;;;;10.75;5.65;;;5.30;99.90;;;;;;7316285;32;20108;-60
2022/05/04 03:37:51;;;;;;;14.23;7.62;;;5.30;99.90;;;;;;7316042;32;20104;-62
2022/05/04 03:41:53;;;;;;;10.45;6.37;;;5.30;99.90;;;;;;7319592;32;20153;-59
2022/05/04 03:45:55;;;;;;;8.73;5.90;;;5.30;99.90;;;;;;7318701;32;20108;-60
2022/05/04 03:49:56;;;;;;;12.88;5.78;;;5.30;99.90;;;;;;7320839;32;20205;-59
2022/05/04 03:53:58;;;;;;;10.55;5.70;;;5.30;99.90;;;;;;7316129;32;20237;-58
2022/05/04 03:58:00;;;;;;;10.00;6.10;;;5.20;99.90;;;;;;7319839;32;20522;-59
2022/05/04 04:02:01;;;;;;;14.52;6.40;;;5.20;99.90;;;;;;7316457;32;20141;-60
2022/05/04 04:06:03;;;;;;;9.35;6.47;;;5.10;99.90;;;;;;7320118;32;20125;-59
2022/05/04 04:10:06;;;;;;;13.57;6.70;;;5.10;99.90;;;;;;7319089;32;20180;-59
2022/05/04 04:14:08;;;;;;;10.57;6.97;;;5.10;99.90;;;;;;7322140;32;20583;-59
2022/05/04 04:18:10;;;;;;;11.52;6.28;;;5.10;99.90;;;;;;7317750;32;20122;-61
2022/05/04 04:22:11;;;;;;;13.23;7.00;;;5.00;99.90;;;;;;7316849;32;20128;-59
2022/05/04 04:26:13;;;;;;;14.00;7.18;;;5.10;99.90;;;;;;7316949;32;20230;-60
2022/05/04 04:30:15;;;;;;;14.48;7.25;;;5.10;99.90;;;;;;7317115;32;21361;-61
2022/05/04 04:34:16;;;;;;;10.55;6.78;;;5.10;99.90;;;;;;7318632;32;20831;-59
2022/05/04 04:38:18;;;;;;;15.13;7.30;;;5.20;99.90;;;;;;7314726;32;20162;-60
2022/05/04 04:42:20;;;;;;;12.30;7.10;;;5.20;99.90;;;;;;7315221;32;20099;-59
2022/05/04 04:46:22;;;;;;;10.80;6.62;;;5.20;99.90;;;;;;7311285;32;20223;-61
2022/05/04 04:50:24;;;;;;;11.30;7.22;;;5.20;99.90;;;;;;7313996;32;20103;-62
2022/05/04 04:54:25;;;;;;;11.05;6.43;;;5.30;99.90;;;;;;7320727;32;20099;-63
2022/05/04 04:58:27;;;;;;;11.65;6.93;;;5.40;99.90;;;;;;7310896;32;20262;-64
2022/05/04 05:02:29;;;;;;;11.20;6.97;;;5.60;99.90;;;;;;7310540;32;20122;-63
2022/05/04 05:06:31;;;;;;;9.02;6.82;;;5.90;99.90;;;;;;7298359;32;20491;-63
2022/05/04 05:10:34;;;;;;;14.48;9.57;;;5.90;99.90;;;;;;7306318;32;20465;-62
2022/05/04 05:18:56;;;;;;;15.82;7.70;;;6.00;99.90;;;;;;7315962;32;20417;-62
2022/05/04 05:22:59;;;;;;;10.40;7.20;;;6.10;99.90;;;;;;7313752;32;20594;-62
2022/05/04 05:27:01;;;;;;;12.37;7.78;;;6.20;99.90;;;;;;7318870;32;20265;-62
2022/05/04 05:31:03;;;;;;;19.40;7.97;;;6.40;99.90;;;;;;7316667;32;20198;-62
2022/05/04 05:35:05;;;;;;;14.63;8.13;;;6.50;99.90;;;;;;7313679;32;20257;-63
2022/05/04 05:39:07;;;;;;;19.10;9.27;;;6.60;99.90;;;;;;7304601;32;20096;-61
2022/05/04 05:43:08;;;;;;;20.67;9.45;;;6.70;99.90;;;;;;7316362;32;20198;-61
2022/05/04 05:47:10;;;;;;;18.67;8.93;;;6.80;99.90;;;;;;7304160;32;20118;-61
2022/05/04 05:51:12;;;;;;;17.58;8.43;;;7.00;99.90;;;;;;7310885;32;20103;-60
2022/05/04 05:55:14;;;;;;;17.17;9.23;;;7.20;99.90;;;;;;7310708;32;20292;-61
2022/05/04 05:59:15;;;;;;;16.52;8.35;;;7.40;99.90;;;;;;7318590;32;20413;-61
2022/05/04 06:03:17;;;;;;;14.07;8.35;;;7.60;99.90;;;;;;7317360;32;20099;-62
2022/05/04 06:07:19;;;;;;;19.92;9.15;;;7.80;99.90;;;;;;7317844;32;20221;-61
2022/05/04 06:11:20;;;;;;;16.95;8.18;;;8.00;99.90;;;;;;7319527;32;20510;-61
2022/05/04 06:15:22;;;;;;;17.33;8.20;;;8.10;99.90;;;;;;7313167;32;20111;-61
2022/05/04 06:19:24;;;;;;;16.52;8.43;;;8.20;99.90;;;;;;7317792;32;20122;-63
2022/05/04 06:23:25;;;;;;;19.17;9.32;;;8.40;99.90;;;;;;7314045;32;20111;-61
2022/05/04 06:27:29;;;;;;;15.05;8.30;;;8.50;99.90;;;;;;7311333;32;20229;-61
2022/05/04 06:35:51;;;;;;;18.55;8.60;;;8.90;99.90;;;;;;7310647;32;20526;-62
2022/05/04 06:39:53;;;;;;;20.35;8.32;;;9.10;99.90;;;;;;7310707;32;20108;-62
2022/05/04 06:43:55;;;;;;;20.42;8.68;;;9.10;99.90;;;;;;7311027;32;20282;-64
2022/05/04 06:47:57;;;;;;;20.27;8.10;;;9.20;99.90;;;;;;7310567;32;20209;-60
2022/05/04 06:51:59;;;;;;;18.12;8.75;;;9.40;99.90;;;;;;7313020;32;20337;-62
2022/05/04 06:56:00;;;;;;;14.80;8.45;;;9.70;99.90;;;;;;7305517;32;20183;-62
2022/05/04 07:00:06;;;;;;;18.33;8.55;;;10.10;99.90;;;;;;7312683;32;20154;-63
2022/05/04 07:04:08;;;;;;;16.20;7.95;;;10.30;99.90;;;;;;7310271;32;20137;-62
2022/05/04 07:08:10;;;;;;;14.32;8.10;;;10.80;99.90;;;;;;7317132;32;20162;-63
2022/05/04 07:12:11;;;;;;;15.80;8.55;;;11.30;99.90;;;;;;7314474;32;20115;-64
2022/05/04 07:16:13;;;;;;;17.27;8.48;;;11.30;99.90;;;;;;7312329;32;20103;-63
2022/05/04 07:20:15;;;;;;;13.45;7.93;;;11.30;99.90;;;;;;7318702;32;20133;-63
2022/05/04 07:24:16;;;;;;;16.80;8.75;;;11.40;99.90;;;;;;7318035;32;20111;-63
2022/05/04 07:28:18;;;;;;;16.73;8.50;;;11.80;99.90;;;;;;7316355;32;20504;-64
2022/05/04 07:32:19;;;;;;;18.62;8.38;;;12.00;99.90;;;;;;7310733;32;20382;-64
2022/05/04 07:36:21;;;;;;;18.45;9.07;;;12.30;99.90;;;;;;7309880;32;20176;-62
2022/05/04 07:44:43;;;;;;;20.73;9.05;;;12.40;99.90;;;;;;7310864;32;20112;-63
2022/05/04 07:48:45;;;;;;;19.80;9.98;;;12.60;99.90;;;;;;7314800;32;20413;-62
2022/05/04 07:52:47;;;;;;;12.95;8.77;;;12.60;99.90;;;;;;7310507;32;20144;-63
2022/05/04 07:56:49;;;;;;;15.40;9.70;;;12.50;99.90;;;;;;7313915;32;20192;-63
2022/05/04 08:05:12;;;;;;;18.10;10.63;;;12.80;99.90;;;;;;7286695;32;20210;-63
2022/05/04 08:09:14;;;;;;;17.58;10.40;;;12.50;99.90;;;;;;7312575;32;20314;-64
2022/05/04 08:13:19;;;;;;;21.75;10.43;;;12.70;99.90;;;;;;7319962;32;20265;-62
2022/05/04 08:17:21;;;;;;;21.60;10.80;;;13.00;99.90;;;;;;7318464;32;20107;-62
2022/05/04 08:21:23;;;;;;;17.95;10.35;;;13.10;99.90;;;;;;7316554;32;20492;-62
2022/05/04 08:25:25;;;;;;;20.45;9.80;;;13.20;99.90;;;;;;7320527;32;20134;-61
2022/05/04 08:29:27;;;;;;;20.00;9.45;;;13.60;99.90;;;;;;7318593;32;20129;-62
2022/05/04 08:33:28;;;;;;;15.23;9.95;;;13.50;99.90;;;;;;7317151;32;20598;-62
2022/05/04 08:37:30;;;;;;;18.00;9.77;;;13.70;99.90;;;;;;7319222;32;21299;-62
2022/05/04 08:41:35;;;;;;;19.55;11.32;;;14.50;99.90;;;;;;7320628;32;20221;-62
2022/05/04 08:45:40;;;;;;;21.52;9.75;;;15.10;99.90;;;;;;7315699;32;20575;-62
2022/05/04 08:49:44;;;;;;;19.70;9.32;;;15.90;99.90;;;;;;7314038;32;20499;-62
2022/05/04 08:53:48;;;;;;;16.90;9.30;;;16.60;99.90;;;;;;7315195;32;20134;-63
2022/05/04 08:57:51;;;;;;;18.10;10.00;;;16.60;99.90;;;;;;7314037;32;20107;-63
2022/05/04 09:01:53;;;;;;;18.92;9.68;;;17.70;99.90;;;;;;7315107;32;20138;-61
2022/05/04 09:05:55;;;;;;;14.48;8.57;;;18.70;99.90;;;;;;7315067;32;20222;-62
2022/05/04 09:10:20;;;;;;;13.82;9.77;;;18.40;99.90;;;;;;7312408;32;20247;-62
2022/05/04 09:14:25;;;;;;;18.00;9.07;;;18.10;99.90;;;;;;7312858;32;20134;-63
2022/05/04 09:18:34;;;;;;;16.90;9.32;;;18.80;99.90;;;;;;7309235;32;20298;-63
2022/05/04 09:22:35;;;;;;;19.20;9.63;;;19.00;99.90;;;;;;7312152;32;20135;-63
2022/05/04 09:26:42;;;;;;;20.62;10.07;;;19.00;99.80;;;;;;7314721;32;20126;-62
2022/05/04 09:30:49;;;;;;;19.87;10.48;;;18.60;99.90;;;;;;7313501;32;20111;-63
2022/05/04 09:34:51;;;;;;;17.12;9.88;;;18.60;99.90;;;;;;7315247;32;20369;-63
2022/05/04 09:47:59;;;;;;;17.35;11.40;;;18.80;99.90;;;;;;7230996;32;20590;-63
2022/05/04 09:52:04;;;;;;;18.50;11.35;;;19.20;99.90;;;;;;7271326;32;20214;-63
2022/05/04 09:56:09;;;;;;;21.60;11.52;;;18.80;99.90;;;;;;7314660;32;21141;-63
2022/05/04 10:00:13;;;;;;;19.70;12.73;;;18.80;99.00;;;;;;7308200;32;20180;-62
2022/05/04 10:04:15;;;;;;;19.25;12.73;;;18.70;97.60;;;;;;7315918;32;20099;-62
2022/05/04 10:08:17;;;;;;;26.50;12.75;;;18.30;99.90;;;;;;7314427;32;20107;-64
2022/05/04 10:12:20;;;;;;;18.40;11.45;;;18.70;99.90;;;;;;7310594;32;20520;-63
2022/05/04 10:16:22;;;;;;;22.37;11.20;;;19.60;98.70;;;;;;7310483;32;20108;-62
2022/05/04 10:20:35;;;;;;;21.08;11.80;;;19.10;97.60;;;;;;7311864;32;20174;-63
2022/05/04 10:24:39;;;;;;;21.55;12.80;;;19.90;99.90;;;;;;7316763;32;20103;-63
2022/05/04 10:33:06;;;;;;;22.90;12.25;;;20.00;97.20;;;;;;7314501;32;20130;-63
2022/05/04 10:37:07;;;;;;;21.33;13.57;;;19.90;96.20;;;;;;7314419;32;20227;-63
2022/05/04 10:41:10;;;;;;;23.12;13.60;;;18.70;97.90;;;;;;7309994;32;20213;-62
2022/05/04 10:45:13;;;;;;;20.88;14.30;;;18.30;99.00;;;;;;7298847;32;20126;-61
2022/05/04 10:49:16;;;;;;;23.92;14.43;;;18.30;99.90;;;;;;7307405;32;20134;-63
2022/05/04 10:53:39;;;;;;;26.80;15.45;;;18.00;99.90;;;;;;7310358;32;20499;-62
2022/05/04 10:57:42;;;;;;;26.73;16.30;;;18.70;99.40;;;;;;7311126;32;20312;-62
2022/05/04 11:02:05;;;;;;;27.30;16.65;;;18.00;99.90;;;;;;7312195;32;20104;-62
2022/05/04 11:06:10;;;;;;;25.45;16.95;;;17.90;99.90;;;;;;7314675;32;20096;-64
2022/05/04 11:10:16;;;;;;;24.55;14.73;;;17.70;99.90;;;;;;7305789;32;20442;-62
2022/05/04 11:14:22;;;;;;;21.83;13.95;;;17.70;99.90;;;;;;7311050;32;20489;-64
2022/05/04 11:18:24;;;;;;;18.52;12.93;;;18.30;99.90;;;;;;7307782;32;20213;-60
2022/05/04 11:22:26;;;;;;;24.45;13.30;;;18.50;99.90;;;;;;7311023;32;20375;-59
2022/05/04 11:26:50;;;;;;;20.45;13.20;;;18.40;99.90;;;;;;7311121;32;20119;-60
2022/05/04 11:30:52;;;;;;;18.70;12.90;;;17.80;99.90;;;;;;7309408;32;20130;-59
2022/05/04 11:34:56;;;;;;;21.60;13.80;;;17.40;99.90;;;;;;7311732;32;20261;-60
2022/05/04 11:38:58;;;;;;;21.98;15.43;;;17.60;99.90;;;;;;7309141;32;20636;-64
2022/05/04 11:42:59;;;;;;;18.23;12.93;;;17.80;99.90;;;;;;7318371;32;20241;-62
2022/05/04 11:47:02;;;;;;;20.00;13.05;;;17.70;99.90;;;;;;7315494;32;20104;-62
2022/05/04 11:51:05;;;;;;;13.77;10.90;;;17.60;99.90;;;;;;7315526;32;20126;-63
2022/05/04 11:55:07;;;;;;;18.92;11.40;;;17.60;99.90;;;;;;7313623;32;20150;-61
2022/05/04 11:59:08;;;;;;;18.05;11.30;;;17.80;99.90;;;;;;7313799;32;20547;-64
2022/05/04 12:03:11;;;;;;;17.58;10.88;;;17.50;99.90;;;;;;7312086;32;20739;-63
2022/05/04 12:07:13;;;;;;;18.55;9.65;;;18.10;99.90;;;;;;7315782;32;20203;-62
2022/05/04 12:11:16;;;;;;;18.90;11.07;;;18.30;99.90;;;;;;7311824;32;20121;-59
2022/05/04 12:15:17;;;;;;;14.85;10.10;;;17.90;99.90;;;;;;7314671;32;20534;-61
2022/05/04 12:19:19;;;;;;;14.93;9.80;;;17.80;99.90;;;;;;7314316;32;20618;-62
2022/05/04 12:23:21;;;;;;;16.27;8.48;;;17.90;99.90;;;;;;7310850;32;20488;-61
2022/05/04 12:27:23;;;;;;;17.40;8.05;;;18.20;99.90;;;;;;7320650;32;20507;-61
2022/05/04 12:35:47;;;;;;;10.25;5.30;;;18.20;97.80;;;;;;7303456;32;20155;-62
2022/05/04 12:39:50;;;;;;;10.73;5.22;;;18.00;93.80;;;;;;7322806;32;20107;-63
2022/05/04 12:43:52;;;;;;;14.60;5.15;;;18.00;93.70;;;;;;7319624;32;20099;-61
2022/05/04 12:47:54;;;;;;;9.45;5.20;;;18.30;91.40;;;;;;7318045;32;20103;-62
2022/05/04 12:51:56;;;;;;;10.68;4.78;;;18.30;86.10;;;;;;7313696;32;20104;-63
2022/05/04 13:00:18;;;;;;;13.55;4.93;;;18.50;81.20;;;;;;7308640;32;20099;-62
2022/05/04 13:04:20;;;;;;;13.23;5.03;;;18.70;85.40;;;;;;7312192;32;20207;-62
2022/05/04 13:08:21;;;;;;;10.07;4.37;;;18.60;85.10;;;;;;7314290;32;20515;-62
2022/05/04 13:12:23;;;;;;;9.57;4.00;;;18.60;77.80;;;;;;7312369;32;20107;-62
2022/05/04 13:16:25;;;;;;;10.00;4.10;;;18.70;77.80;;;;;;7312429;32;20562;-62
2022/05/04 13:20:26;;;;;;;10.40;4.12;;;18.60;76.80;;;;;;7313447;32;20108;-63
2022/05/04 13:24:28;;;;;;;8.93;5.00;;;18.70;77.20;;;;;;7315048;32;20138;-63
2022/05/04 13:28:31;;;;;;;6.90;3.87;;;18.60;75.60;;;;;;7312936;32;20199;-64
2022/05/04 13:32:33;;;;;;;10.15;4.37;;;18.70;80.00;;;;;;7308329;32;20293;-64
2022/05/04 13:36:34;;;;;;;10.07;3.87;;;18.80;77.10;;;;;;7312640;32;20202;-63
2022/05/04 13:40:36;;;;;;;8.05;4.95;;;18.70;76.60;;;;;;7307964;32;20130;-62
2022/05/04 13:44:38;;;;;;;12.25;4.43;;;18.60;71.90;;;;;;7318676;32;20540;-63
2022/05/04 13:48:40;;;;;;;10.38;4.55;;;18.50;73.20;;;;;;7309991;32;20782;-63
2022/05/04 13:57:03;;;;;;;9.25;4.87;;;18.50;79.60;;;;;;7314498;32;20134;-62
2022/05/04 14:01:04;;;;;;;11.55;4.57;;;18.50;76.50;;;;;;7310587;32;20577;-63
2022/05/04 14:05:06;;;;;;;10.85;3.83;;;18.50;76.90;;;;;;7315563;32;20215;-64
2022/05/04 14:09:08;;;;;;;7.30;4.00;;;18.40;78.70;;;;;;7316559;32;20104;-63
2022/05/04 14:13:11;;;;;;;12.02;4.35;;;18.60;78.90;;;;;;7313648;32;20182;-63
2022/05/04 14:17:13;;;;;;;13.55;4.37;;;18.70;77.90;;;;;;7316444;32;20126;-63
2022/05/04 14:21:14;;;;;;;9.15;4.03;;;18.90;77.80;;;;;;7290757;32;20714;-63
2022/05/04 14:25:16;;;;;;;7.93;3.70;;;18.80;78.70;;;;;;7311623;32;20183;-65
2022/05/04 14:29:19;;;;;;;9.25;4.20;;;18.90;81.00;;;;;;7313940;32;20750;-63
2022/05/04 14:33:21;;;;;;;12.90;3.75;;;18.90;74.80;;;;;;7313457;32;20133;-63
2022/05/04 14:37:22;;;;;;;8.52;3.90;;;18.90;81.70;;;;;;7307535;32;20104;-63
2022/05/04 14:41:26;;;;;;;8.40;4.50;;;18.90;79.70;;;;;;7313966;32;20469;-64
2022/05/04 14:45:28;;;;;;;8.20;4.60;;;19.00;78.20;;;;;;7312857;32;20229;-63
2022/05/04 14:49:30;;;;;;;17.62;6.65;;;18.90;77.50;;;;;;7313730;32;20553;-62
2022/05/04 14:53:31;;;;;;;12.88;5.85;;;18.70;79.90;;;;;;7311607;32;20213;-64
2022/05/04 14:57:33;;;;;;;11.85;5.97;;;18.70;83.90;;;;;;7298760;32;20104;-62
2022/05/04 15:01:35;;;;;;;8.85;4.03;;;18.90;83.90;;;;;;7308600;32;20099;-65
2022/05/04 15:05:36;;;;;;;9.30;4.45;;;19.30;73.30;;;;;;7313211;32;20489;-63
2022/05/04 15:09:38;;;;;;;9.90;5.57;;;19.00;78.90;;;;;;7308981;32;20591;-60
2022/05/04 15:13:40;;;;;;;11.75;6.37;;;19.00;78.90;;;;;;7309331;32;20186;-59
2022/05/04 15:17:42;;;;;;;11.35;5.32;;;18.70;81.50;;;;;;7307280;32;20103;-60
2022/05/04 15:21:44;;;;;;;9.18;5.80;;;18.40;83.00;;;;;;7317158;32;20207;-60
2022/05/04 15:25:45;;;;;;;10.57;4.60;;;18.40;85.60;;;;;;7315541;32;20135;-61
2022/05/04 15:29:47;;;;;;;11.80;5.30;;;18.40;83.40;;;;;;7317059;32;20234;-60
2022/05/04 15:33:49;;;;;;;9.50;4.87;;;18.20;82.30;;;;;;7313849;32;20511;-63
2022/05/04 15:37:50;;;;;;;11.43;5.57;;;17.80;83.60;;;;;;7326298;32;20308;-63
2022/05/04 15:41:53;;;;;;;9.52;4.65;;;18.00;81.60;;;;;;7317145;32;20187;-62
2022/05/04 15:45:55;;;;;;;12.98;4.97;;;17.80;80.40;;;;;;7320273;32;20630;-62
2022/05/04 15:49:57;;;;;;;9.57;3.83;;;17.70;79.80;;;;;;7323548;32;20253;-63
2022/05/04 15:53:59;;;;;;;15.05;8.68;;;17.60;79.50;;;;;;7312593;32;20234;-62
2022/05/04 15:58:01;;;;;;;8.18;3.87;;;17.60;76.50;;;;;;7313451;32;20183;-63
2022/05/04 16:02:03;;;;;;;11.77;4.15;;;17.50;78.20;;;;;;7319380;32;20107;-62
2022/05/04 16:06:05;;;;;;;10.52;4.85;;;17.60;78.60;;;;;;7318023;32;20183;-63
2022/05/04 16:10:07;;;;;;;9.23;4.32;;;17.60;79.10;;;;;;7316340;32;20587;-62
2022/05/04 16:14:09;;;;;;;8.35;4.30;;;17.50;80.00;;;;;;7311086;32;20383;-61
2022/05/04 16:22:31;;;;;;;9.82;4.50;;;17.30;79.50;;;;;;7310720;32;20884;-62
2022/05/04 16:26:33;;;;;;;12.30;5.72;;;17.30;80.30;;;;;;7320071;32;20191;-62
2022/05/04 16:30:35;;;;;;;10.65;4.57;;;17.40;81.20;;;;;;7318040;32;20507;-61
2022/05/04 16:34:37;;;;;;;9.05;3.75;;;17.20;78.30;;;;;;7312137;32;20218;-62
2022/05/04 16:38:39;;;;;;;9.13;3.95;;;17.00;78.50;;;;;;7317296;32;20141;-63
2022/05/04 16:42:41;;;;;;;7.15;3.45;;;17.00;78.40;;;;;;7321318;32;20433;-62
2022/05/04 16:46:43;;;;;;;8.75;4.05;;;16.90;77.10;;;;;;7319467;32;20507;-62
2022/05/04 16:50:46;;;;;;;9.80;4.37;;;17.00;78.00;;;;;;7317468;32;20273;-61
2022/05/04 16:54:47;;;;;;;9.10;4.93;;;17.10;78.20;;;;;;7315895;32;20125;-61
2022/05/04 16:58:50;;;;;;;9.30;4.62;;;16.80;82.00;;;;;;7315135;32;20148;-64
2022/05/04 17:02:52;;;;;;;9.55;5.05;;;16.80;80.80;;;;;;7312017;32;20430;-62
2022/05/04 17:06:54;;;;;;;9.75;4.60;;;16.70;82.40;;;;;;7314358;32;20316;-63
2022/05/04 17:10:55;;;;;;;9.38;4.60;;;16.70;82.20;;;;;;7309404;32;20123;-62
2022/05/04 17:14:57;;;;;;;8.85;4.53;;;16.60;83.40;;;;;;7309561;32;20100;-62
2022/05/04 17:18:59;;;;;;;32.42;24.33;;;16.50;83.00;;;;;;7310377;32;21298;-61
2022/05/04 17:23:00;;;;;;;14.90;4.87;;;16.50;81.90;;;;;;7314645;32;20555;-62
2022/05/04 17:27:03;;;;;;;8.57;4.10;;;16.40;83.80;;;;;;7308463;32;20227;-62
2022/05/04 17:31:04;;;;;;;18.02;5.25;;;16.30;85.50;;;;;;7317460;32;22319;-63
2022/05/04 17:39:27;;;;;;;8.85;4.47;;;16.30;88.10;;;;;;7315856;32;20169;-62
2022/05/04 17:43:29;;;;;;;10.18;4.50;;;16.20;88.00;;;;;;7312519;32;20488;-63
2022/05/04 17:47:31;;;;;;;11.32;5.32;;;16.10;87.60;;;;;;7320620;32;20194;-62
2022/05/04 17:51:33;;;;;;;12.32;4.90;;;15.80;87.70;;;;;;7321061;32;20613;-61
2022/05/04 17:55:34;;;;;;;11.02;4.70;;;15.80;90.10;;;;;;7320675;32;20252;-62
2022/05/04 17:59:36;;;;;;;8.93;4.70;;;15.70;90.00;;;;;;7307886;32;20117;-65
2022/05/04 18:04:00;;;;;;;9.45;3.87;;;15.70;90.50;;;;;;7397659;31;20494;-64
2022/05/04 18:08:04;;;;;;;14.30;5.28;;;15.50;91.40;;;;;;7375503;32;20091;-64
2022/05/04 18:12:09;;;;;;;12.13;5.00;;;15.40;91.50;;;;;;7375922;32;20794;-67
2022/05/04 18:16:11;;;;;;;10.18;4.80;;;15.20;93.00;;;;;;7382928;32;20450;-66
2022/05/04 18:20:12;;;;;;;11.80;5.12;;;15.10;92.80;;;;;;7377072;32;20111;-64
2022/05/04 18:24:14;;;;;;;12.13;4.37;;;14.90;94.40;;;;;;7380690;32;20106;-65
2022/05/04 18:28:16;;;;;;;9.50;4.20;;;14.80;95.40;;;;;;7382606;32;20471;-67
2022/05/04 18:32:18;;;;;;;7.55;3.55;;;14.60;95.50;;;;;;7375361;32;20134;-65
2022/05/04 18:36:32;;;;;;;11.73;4.28;;;14.40;98.30;;;;;;7381804;32;20515;-67
2022/05/04 18:40:34;;;;;;;9.05;3.65;;;14.20;99.90;;;;;;7376428;32;20110;-63
2022/05/04 18:44:36;;;;;;;7.78;3.00;;;14.00;99.90;;;;;;7371145;32;20591;-66
2022/05/04 18:48:37;;;;;;;11.00;2.87;;;13.90;99.90;;;;;;7374463;32;20129;-65
2022/05/04 18:52:39;;;;;;;6.85;2.47;;;13.70;99.90;;;;;;7374489;32;20545;-64
2022/05/04 18:56:42;;;;;;;7.32;2.45;;;13.60;99.90;;;;;;7379014;32;20720;-63
2022/05/04 19:00:46;;;;;;;6.93;2.80;;;13.60;99.90;;;;;;7372265;32;20808;-66
2022/05/04 19:04:48;;;;;;;8.10;2.97;;;13.40;99.90;;;;;;7257255;32;20225;-66
2022/05/04 19:08:50;;;;;;;10.73;3.20;;;13.30;99.90;;;;;;7254407;32;20230;-64
2022/05/04 19:12:51;;;;;;;8.05;2.92;;;13.10;99.90;;;;;;7251427;32;20235;-62
2022/05/04 19:16:53;;;;;;;6.45;2.37;;;13.00;99.90;;;;;;7234302;32;20127;-63
2022/05/04 19:20:55;;;;;;;12.37;3.10;;;12.90;99.90;;;;;;7233243;32;20123;-64
2022/05/04 19:24:57;;;;;;;7.50;2.90;;;12.80;99.90;;;;;;7242410;32;20089;-63
2022/05/04 19:28:59;;;;;;;12.60;2.47;;;12.70;99.90;;;;;;7239063;32;20213;-63
2022/05/04 19:33:01;;;;;;;7.68;2.97;;;12.50;99.90;;;;;;7234443;32;20428;-63
2022/05/04 19:37:03;;;;;;;6.37;2.72;;;12.40;99.90;;;;;;7289540;32;20131;-63
2022/05/04 19:41:04;;;;;;;9.82;2.60;;;12.30;99.90;;;;;;7236640;32;20128;-64
2022/05/04 19:45:10;;;;;;;13.18;3.03;;;12.20;99.90;;;;;;7247385;32;20180;-63
2022/05/04 19:49:12;;;;;;;7.78;2.78;;;12.00;99.90;;;;;;7236788;32;20105;-63
2022/05/04 19:53:14;;;;;;;9.35;3.37;;;11.90;99.90;;;;;;7241146;32;20599;-64
2022/05/04 19:57:16;;;;;;;11.63;3.67;;;11.80;99.90;;;;;;7234671;32;20583;-61
2022/05/04 20:01:18;;;;;;;9.57;3.50;;;11.70;99.90;;;;;;7259178;32;20223;-63
2022/05/04 20:05:19;;;;;;;8.57;3.37;;;11.60;99.90;;;;;;7366216;32;20665;-62
2022/05/04 20:09:23;;;;;;;10.88;5.00;;;11.40;99.90;;;;;;7360073;32;20106;-63
2022/05/04 20:13:25;;;;;;;9.63;3.75;;;11.30;99.90;;;;;;7359656;32;20407;-63
2022/05/04 20:17:29;;;;;;;8.23;3.87;;;11.10;99.90;;;;;;7354386;32;20233;-62
2022/05/04 20:21:31;;;;;;;11.20;3.33;;;11.00;99.90;;;;;;7352622;32;20141;-63
2022/05/04 20:25:32;;;;;;;7.47;3.30;;;10.90;99.90;;;;;;7360269;32;20198;-63
2022/05/04 20:29:34;;;;;;;9.93;3.22;;;10.60;99.90;;;;;;7359077;32;20103;-64
2022/05/04 20:33:36;;;;;;;12.75;3.58;;;10.60;99.90;;;;;;7364460;32;20111;-62
2022/05/04 20:41:58;;;;;;;10.35;4.75;;;10.20;99.90;;;;;;7358406;32;20107;-63
2022/05/04 20:46:00;;;;;;;10.80;5.68;;;10.10;99.90;;;;;;7364554;32;20212;-62
2022/05/04 20:52:10;;;;;;;8.98;3.78;;;9.90;99.90;;;;;;7361324;32;20106;-62
2022/05/04 20:54:24;;;;;;;6.57;3.80;;;9.90;99.90;;;;;;7359790;32;20760;-63
2022/05/04 20:58:27;;;;;;;7.62;4.30;;;9.80;99.90;;;;;;7352874;32;20099;-60
2022/05/04 21:02:31;;;;;;;6.82;4.15;;;9.60;99.90;;;;;;7358339;32;20252;-60
2022/05/04 21:06:35;;;;;;;11.10;4.25;;;9.50;99.90;;;;;;7363249;32;20555;-60
2022/05/04 21:10:36;;;;;;;8.82;3.87;;;9.40;99.90;;;;;;7349982;32;20102;-61
2022/05/04 21:14:38;;;;;;;10.07;4.62;;;9.30;99.90;;;;;;7362416;32;20187;-60
2022/05/04 21:18:40;;;;;;;9.60;4.10;;;9.20;99.90;;;;;;7368146;32;20106;-60
2022/05/04 21:22:41;;;;;;;6.97;4.65;;;9.10;99.90;;;;;;7368134;32;20201;-61
2022/05/04 21:26:44;;;;;;;9.45;4.72;;;9.00;99.90;;;;;;7352223;32;20534;-59
2022/05/04 21:30:46;;;;;;;6.93;4.37;;;8.90;99.90;;;;;;7366676;32;20129;-59
2022/05/04 21:34:48;;;;;;;8.30;4.15;;;8.80;99.90;;;;;;7363051;32;20213;-59
2022/05/04 21:38:49;;;;;;;13.82;4.70;;;8.70;99.90;;;;;;7355337;32;20205;-59
2022/05/04 21:42:51;;;;;;;6.25;4.20;;;8.60;99.90;;;;;;7358384;32;20193;-60
2022/05/04 21:46:53;;;;;;;7.78;4.53;;;8.60;99.90;;;;;;7363378;32;20115;-59
2022/05/04 21:50:55;;;;;;;11.80;4.45;;;8.50;99.90;;;;;;7362655;32;20167;-60
2022/05/04 21:54:56;;;;;;;11.70;4.12;;;8.40;99.90;;;;;;7361022;32;20133;-59
2022/05/04 21:58:58;;;;;;;7.97;4.20;;;8.40;99.90;;;;;;7360399;32;20106;-59
2022/05/04 22:03:02;;;;;;;10.07;4.40;;;8.30;99.90;;;;;;7352765;32;20676;-59